Terminal Aerodrome Forecast
Issued by NWS

Home | Current Version | Previous Version | Text Only | Print | Product List | Glossary On
Versions: 1 2 3 4 5 6 7 8 9 10 11 12 13
000
FTUS43 KDDC 140500
TAFHYS
TAF
KHYS 140520Z 1406/1506 35025G35KT 6SM -SN OVC010
      TEMPO 1406/1408 2SM -SN VV008
     FM140800 36015G25KT 3SM BR BKN015
     FM141000 36020G28KT P6SM SCT010=

USA.gov is the U.S. government's official web portal to all federal, state and local government web resources and services.